Time;durP1;ratioP1;P1;durP2;ratioP2;P2;SDS_P1;SDS_P2;PMS_P1;PMS_P2;Temp;Humidity;BMP_temperature;BMP_pressure;BME280_temperature;BME280_humidity;BME280_pressure;Samples;Min_cycle;Max_cycle;Signal;HPM_P1;HPM_P2
2022/10/28 00:00:28;;;;;;;10.57;2.70;;;;;;;14.56;85.09;98033.09;5051499;28;20042;-58
2022/10/28 00:02:54;;;;;;;5.97;2.30;;;;;;;14.58;85.12;98030.91;5061948;28;20083;-59
2022/10/28 00:05:21;;;;;;;7.20;2.80;;;;;;;14.65;84.26;98023.31;5063872;28;20173;-59
2022/10/28 00:07:48;;;;;;;9.05;2.88;;;;;;;14.68;84.23;98021.97;5045732;28;20626;-58
2022/10/28 00:10:14;;;;;;;6.97;2.95;;;;;;;14.66;84.08;98018.69;5048763;28;20119;-59
2022/10/28 00:12:41;;;;;;;6.75;2.67;;;;;;;14.68;84.04;98016.53;5061737;28;20119;-58
2022/10/28 00:15:08;;;;;;;6.75;2.33;;;;;;;14.70;83.76;98011.63;5057264;28;20083;-58
2022/10/28 00:17:34;;;;;;;7.07;2.45;;;;;;;14.65;84.34;98011.59;5065525;28;20568;-59
2022/10/28 00:20:01;;;;;;;6.97;2.25;;;;;;;14.59;84.52;98013.47;5052024;28;20116;-59
2022/10/28 00:22:27;;;;;;;12.25;3.90;;;;;;;14.55;84.54;98020.50;5065042;28;20090;-59
2022/10/28 00:24:54;;;;;;;8.50;2.65;;;;;;;14.55;84.65;98018.63;5065811;28;20519;-58
2022/10/28 00:27:20;;;;;;;9.35;2.95;;;;;;;14.57;84.12;98021.09;5050600;28;20733;-59
2022/10/28 00:29:47;;;;;;;7.78;3.05;;;;;;;14.60;83.56;98017.84;5044407;28;20045;-59
2022/10/28 00:32:13;;;;;;;14.75;2.90;;;;;;;14.60;83.68;98014.28;5063893;28;20123;-59
2022/10/28 00:34:40;;;;;;;10.05;3.10;;;;;;;14.52;84.00;98019.13;5046055;28;20124;-59
2022/10/28 00:37:06;;;;;;;6.35;2.58;;;;;;;14.52;84.05;98012.88;5062983;28;20458;-59
2022/10/28 00:39:33;;;;;;;9.07;2.58;;;;;;;14.46;84.28;98014.75;5065071;28;20520;-59
2022/10/28 00:42:02;;;;;;;9.48;3.03;;;;;;;14.41;84.29;98022.91;5064934;28;20072;-59
2022/10/28 00:44:38;;;;;;;11.18;3.45;;;;;;;14.40;84.05;98023.94;5065149;28;20051;-58
2022/10/28 00:47:23;;;;;;;14.65;2.80;;;;;;;14.42;84.18;98024.53;5064972;28;20731;-59
2022/10/28 00:49:53;;;;;;;8.73;2.90;;;;;;;14.43;83.88;98018.00;5058773;28;20051;-58
2022/10/28 00:52:26;;;;;;;7.63;2.35;;;;;;;14.48;83.39;98026.19;5064226;28;20134;-59
2022/10/28 00:54:55;;;;;;;9.02;2.92;;;;;;;14.51;83.12;98016.66;5065175;28;20041;-58
2022/10/28 00:57:27;;;;;;;10.88;3.05;;;;;;;14.55;82.69;98018.63;5064267;28;20083;-59
2022/10/28 00:59:54;;;;;;;7.07;3.00;;;;;;;14.59;82.32;98021.63;5066178;28;20043;-58
2022/10/28 01:02:20;;;;;;;12.68;2.80;;;;;;;14.55;82.60;98013.19;5068148;28;20052;-58
2022/10/28 01:04:47;;;;;;;7.90;2.60;;;;;;;14.56;82.76;98022.97;5049328;28;20107;-58
2022/10/28 01:07:15;;;;;;;10.32;2.55;;;;;;;14.46;83.19;98012.03;5062532;28;20123;-58
2022/10/28 01:09:41;;;;;;;11.27;2.50;;;;;;;14.42;83.49;98014.44;5068218;28;20059;-58
2022/10/28 01:12:14;;;;;;;5.13;2.17;;;;;;;14.41;83.35;98014.72;5066822;28;20132;-58
2022/10/28 01:15:11;;;;;;;6.63;2.42;;;;;;;14.35;83.65;98019.31;5068306;28;20123;-59
2022/10/28 01:17:59;;;;;;;7.57;2.30;;;;;;;14.35;83.68;98013.84;5067837;28;20123;-59
2022/10/28 01:20:49;;;;;;;8.55;2.40;;;;;;;14.36;83.41;98010.03;5060567;28;20094;-58
2022/10/28 01:23:24;;;;;;;10.68;2.78;;;;;;;14.27;84.38;98012.41;5068428;28;20055;-58
2022/10/28 01:26:12;;;;;;;8.15;2.55;;;;;;;14.23;84.54;98005.03;5068496;28;20051;-58
2022/10/28 01:29:15;;;;;;;7.70;3.33;;;;;;;14.17;84.74;98010.44;5051616;28;20073;-59
2022/10/28 01:31:52;;;;;;;7.53;2.72;;;;;;;14.05;85.37;98005.16;5058971;28;20075;-59
2022/10/28 01:34:34;;;;;;;8.75;2.80;;;;;;;14.00;85.97;98004.28;5067415;28;20124;-59
2022/10/28 01:37:11;;;;;;;7.25;2.70;;;;;;;13.94;86.00;98006.16;5065401;28;20160;-58
2022/10/28 01:40:04;;;;;;;13.55;3.05;;;;;;;13.91;86.46;98010.22;5047981;28;20037;-58
2022/10/28 01:42:39;;;;;;;9.90;3.53;;;;;;;13.92;86.55;98005.59;5064744;28;20086;-59
2022/10/28 01:45:24;;;;;;;6.70;2.58;;;;;;;13.85;87.12;98004.97;5047690;28;20122;-58
2022/10/28 01:47:50;;;;;;;9.80;3.40;;;;;;;13.84;87.19;98009.59;5068148;28;20075;-59
2022/10/28 01:50:24;;;;;;;10.18;2.60;;;;;;;13.88;87.02;97999.03;5067840;28;20048;-58
2022/10/28 01:52:59;;;;;;;6.00;2.70;;;;;;;13.93;86.64;97998.25;5067666;28;20072;-57
2022/10/28 01:55:32;;;;;;;8.93;2.80;;;;;;;13.96;86.63;97992.31;5056292;28;20696;-58
2022/10/28 01:58:00;;;;;;;6.85;3.30;;;;;;;14.01;86.49;97990.41;5037369;28;20121;-58
2022/10/28 02:00:30;;;;;;;10.20;3.20;;;;;;;14.06;86.49;97995.09;5057347;28;20124;-58
2022/10/28 02:02:57;;;;;;;9.88;2.95;;;;;;;14.05;86.44;97996.19;5067141;28;20052;-58
2022/10/28 02:05:50;;;;;;;8.55;2.92;;;;;;;14.02;86.34;97994.81;5065765;28;20044;-58
2022/10/28 02:08:17;;;;;;;13.88;4.22;;;;;;;14.03;86.52;97990.16;5047730;28;20073;-59
2022/10/28 02:11:04;;;;;;;10.90;2.97;;;;;;;14.04;86.54;97986.34;5046557;28;20773;-59
2022/10/28 02:13:55;;;;;;;9.15;3.05;;;;;;;14.03;86.47;97984.72;5063878;28;21129;-59
2022/10/28 02:16:44;;;;;;;5.18;2.90;;;;;;;14.01;86.47;97986.91;5053099;28;20056;-59
2022/10/28 02:19:45;;;;;;;11.45;3.17;;;;;;;13.95;86.75;97982.47;5066909;28;20558;-59
2022/10/28 02:22:12;;;;;;;;;;;;;;;13.96;87.13;97974.03;5060010;28;20143;-58
2022/10/28 02:25:03;;;;;;;11.27;3.58;;;;;;;13.93;87.26;97976.47;5067447;28;19921;-58
2022/10/28 02:27:29;;;;;;;10.65;2.85;;;;;;;13.91;87.44;97972.13;5066773;28;20083;-58
2022/10/28 02:30:03;;;;;;;8.38;3.03;;;;;;;13.88;87.80;97969.91;5067152;28;20056;-59
2022/10/28 02:32:37;;;;;;;8.18;3.20;;;;;;;13.92;87.61;97975.66;5058602;28;20049;-59
2022/10/28 02:35:10;;;;;;;10.77;3.17;;;;;;;13.94;87.57;97969.94;5047101;28;20102;-59
2022/10/28 02:37:39;;;;;;;8.55;3.13;;;;;;;14.03;87.30;97973.81;5061829;28;20124;-59
2022/10/28 02:40:13;;;;;;;7.90;2.97;;;;;;;14.15;86.79;97981.81;5057409;28;20106;-59
2022/10/28 02:42:45;;;;;;;11.55;3.22;;;;;;;14.26;86.14;97971.84;5061541;28;20048;-58
2022/10/28 02:45:24;;;;;;;7.95;2.63;;;;;;;14.41;85.05;97974.66;5066746;28;20054;-59
2022/10/28 02:47:56;;;;;;;10.07;3.25;;;;;;;14.57;84.09;97966.59;5064535;28;20076;-57
2022/10/28 02:50:28;;;;;;;7.80;2.90;;;;;;;14.64;83.75;97972.63;5064965;28;20064;-59
2022/10/28 02:52:58;;;;;;;8.23;2.88;;;;;;;14.69;83.32;97966.38;5052275;28;20090;-58
2022/10/28 02:55:33;;;;;;;9.25;2.72;;;;;;;14.70;83.21;97968.84;5044184;28;20092;-58
2022/10/28 02:57:59;;;;;;;7.07;2.70;;;;;;;14.73;83.01;97964.75;5061861;28;20048;-58
2022/10/28 03:00:26;;;;;;;7.57;3.08;;;;;;;14.82;82.60;97965.13;5045933;28;20037;-59
2022/10/28 03:02:53;;;;;;;8.63;2.55;;;;;;;14.89;81.99;97967.59;5062637;28;20055;-59
2022/10/28 03:05:19;;;;;;;8.30;2.67;;;;;;;14.94;81.91;97965.72;5065537;28;20072;-58
2022/10/28 03:07:46;;;;;;;9.70;2.75;;;;;;;15.02;81.34;97961.66;5061086;28;20400;-59
2022/10/28 03:10:12;;;;;;;8.93;3.92;;;;;;;15.05;81.33;97966.59;5066530;28;20594;-59
2022/10/28 03:12:39;;;;;;;6.47;2.90;;;;;;;15.14;80.37;97958.69;5065840;28;20739;-59
2022/10/28 03:15:06;;;;;;;13.00;5.50;;;;;;;15.14;80.56;97964.16;5056820;28;20041;-59
2022/10/28 03:17:32;;;;;;;12.93;3.42;;;;;;;15.16;80.43;97972.91;5058360;28;20071;-59
2022/10/28 03:19:59;;;;;;;10.63;3.78;;;;;;;15.18;80.48;97975.34;5061042;28;20068;-60
2022/10/28 03:22:25;;;;;;;7.13;2.58;;;;;;;15.18;80.54;97978.06;5056967;28;20047;-58
2022/10/28 03:24:52;;;;;;;8.90;2.90;;;;;;;15.17;80.65;97979.16;5065874;28;20068;-58
2022/10/28 03:27:18;;;;;;;10.52;3.35;;;;;;;15.19;80.62;97972.34;5066152;28;20064;-59
2022/10/28 03:29:45;;;;;;;8.05;3.13;;;;;;;15.26;79.79;97974.03;5049071;28;20036;-59
2022/10/28 03:32:12;;;;;;;10.45;2.95;;;;;;;15.28;79.44;97972.66;5054555;28;20157;-59
2022/10/28 03:34:38;;;;;;;5.60;2.42;;;;;;;15.33;79.24;97967.22;5062781;28;20051;-59
2022/10/28 03:37:05;;;;;;;8.20;2.60;;;;;;;15.42;78.36;97959.34;5066191;28;20079;-59
2022/10/28 03:39:32;;;;;;;8.40;3.30;;;;;;;15.50;77.81;97963.44;5054009;28;20060;-58
2022/10/28 03:41:58;;;;;;;7.32;2.40;;;;;;;15.55;77.70;97955.25;5051691;28;20120;-59
2022/10/28 03:44:25;;;;;;;10.57;2.85;;;;;;;15.59;77.00;97937.25;5065850;28;20074;-58
2022/10/28 03:46:51;;;;;;;8.95;2.45;;;;;;;15.66;76.61;97944.38;5065500;28;20041;-59
2022/10/28 03:49:18;;;;;;;8.10;2.60;;;;;;;15.69;76.08;97943.81;5062094;28;20174;-58
2022/10/28 03:51:44;;;;;;;12.63;2.55;;;;;;;15.78;75.27;97941.38;5051217;28;20040;-58
2022/10/28 03:54:11;;;;;;;6.80;2.60;;;;;;;15.79;75.02;97946.56;5065602;28;20058;-58
2022/10/28 03:56:39;;;;;;;6.55;1.92;;;;;;;15.89;73.79;97944.91;5065616;28;20044;-59
2022/10/28 03:59:08;;;;;;;9.00;2.67;;;;;;;15.92;73.34;97947.13;5064900;28;20581;-59
2022/10/28 04:01:34;;;;;;;9.77;2.65;;;;;;;15.95;72.98;97936.47;5049621;28;20041;-58
2022/10/28 04:04:01;;;;;;;7.65;2.40;;;;;;;16.04;72.43;97939.50;5065315;28;20098;-59
2022/10/28 04:06:28;;;;;;;10.60;2.75;;;;;;;16.11;71.97;97942.75;5055764;28;20654;-59
2022/10/28 04:08:54;;;;;;;7.20;2.40;;;;;;;16.15;71.41;97942.22;5065624;28;20120;-58
2022/10/28 04:11:21;;;;;;;8.52;2.22;;;;;;;16.20;71.29;97940.28;5064939;28;20067;-59
2022/10/28 04:13:47;;;;;;;7.70;2.33;;;;;;;16.20;70.78;97936.72;5053114;28;20049;-59
2022/10/28 04:16:14;;;;;;;4.82;2.25;;;;;;;16.20;71.08;97934.00;5044797;28;20174;-59
2022/10/28 04:18:40;;;;;;;8.50;2.92;;;;;;;16.25;70.96;97932.09;5055720;28;20519;-58
2022/10/28 04:21:07;;;;;;;6.75;2.33;;;;;;;16.34;70.07;97929.63;5062595;28;20055;-58
2022/10/28 04:23:33;;;;;;;4.72;2.33;;;;;;;16.35;70.14;97935.88;5062458;28;20516;-59
2022/10/28 04:26:00;;;;;;;7.90;2.83;;;;;;;16.44;69.35;97934.22;5062990;28;20133;-58
2022/10/28 04:28:26;;;;;;;6.40;2.33;;;;;;;16.42;69.50;97938.34;5063050;28;20072;-57
2022/10/28 04:30:53;;;;;;;11.65;2.22;;;;;;;16.45;69.34;97935.88;5063261;28;20500;-58
2022/10/28 04:33:19;;;;;;;8.40;2.63;;;;;;;16.48;69.43;97937.25;5063130;28;20046;-59
2022/10/28 04:35:46;;;;;;;7.90;2.28;;;;;;;16.50;69.10;97930.41;5066169;28;20076;-58
2022/10/28 04:38:14;;;;;;;4.88;1.90;;;;;;;16.56;68.95;97942.16;5060507;28;20056;-59
2022/10/28 04:40:40;;;;;;;6.32;2.88;;;;;;;16.58;68.73;97944.59;5066380;28;20585;-58
2022/10/28 04:43:07;;;;;;;7.47;3.03;;;;;;;16.54;68.69;97940.78;5066885;28;20087;-59
2022/10/28 04:45:36;;;;;;;10.65;2.33;;;;;;;16.46;69.48;97932.06;5067328;28;20053;-59
2022/10/28 04:48:04;;;;;;;10.35;2.85;;;;;;;16.50;69.32;97943.25;5066959;28;20036;-58
2022/10/28 04:50:30;;;;;;;9.65;2.28;;;;;;;16.48;69.48;97929.84;5065797;28;20107;-59
2022/10/28 04:52:58;;;;;;;6.97;2.38;;;;;;;16.37;70.10;97923.59;5067150;28;20688;-59
2022/10/28 04:55:25;;;;;;;8.05;3.03;;;;;;;16.32;70.97;97914.56;5063058;28;20048;-59
2022/10/28 04:57:54;;;;;;;13.10;3.60;;;;;;;16.34;70.62;97912.41;5066791;28;20543;-59
2022/10/28 05:00:21;;;;;;;7.53;2.05;;;;;;;16.36;70.11;97911.03;5066836;28;20115;-57
2022/10/28 05:02:47;;;;;;;8.85;2.88;;;;;;;16.36;69.81;97907.47;5066538;28;20072;-59
2022/10/28 05:05:14;;;;;;;8.18;2.33;;;;;;;16.32;69.93;97906.38;5067312;28;20127;-57
2022/10/28 05:07:45;;;;;;;10.95;2.80;;;;;;;16.32;69.71;97909.09;5066168;28;20048;-59
2022/10/28 05:10:14;;;;;;;6.75;1.92;;;;;;;16.31;69.85;97907.47;5066597;28;20123;-59
2022/10/28 05:12:42;;;;;;;8.05;1.92;;;;;;;16.29;70.00;97909.69;5066000;28;20072;-59
2022/10/28 05:15:09;;;;;;;6.35;2.40;;;;;;;16.21;70.61;97916.50;5066630;28;20202;-59
2022/10/28 05:17:38;;;;;;;8.65;2.20;;;;;;;16.21;70.51;97921.97;5066217;28;20044;-59
2022/10/28 05:20:05;;;;;;;6.65;1.95;;;;;;;16.18;70.38;97923.34;5065624;28;20052;-58
2022/10/28 05:22:32;;;;;;;7.35;2.25;;;;;;;16.23;70.19;97923.34;5066162;28;20478;-59
2022/10/28 05:24:58;;;;;;;5.95;2.00;;;;;;;16.19;70.35;97911.34;5065432;28;20040;-59
2022/10/28 05:27:25;;;;;;;5.82;2.00;;;;;;;16.17;70.63;97910.78;5066422;28;20520;-57
2022/10/28 05:29:51;;;;;;;5.40;1.90;;;;;;;16.08;70.72;97916.00;5065834;28;20079;-58
2022/10/28 05:32:18;;;;;;;9.80;1.88;;;;;;;16.07;70.71;97916.28;5065105;28;20049;-58
2022/10/28 05:34:44;;;;;;;10.85;2.85;;;;;;;16.09;70.85;97908.59;5055705;28;20131;-58
2022/10/28 05:37:11;;;;;;;6.20;2.03;;;;;;;16.09;70.48;97917.63;5057111;28;20140;-59
2022/10/28 05:39:37;;;;;;;6.60;2.33;;;;;;;16.07;70.34;97914.34;5057433;28;20068;-58
2022/10/28 05:42:04;;;;;;;9.82;1.90;;;;;;;16.10;70.39;97912.97;5050491;28;20068;-58
2022/10/28 05:44:30;;;;;;;4.82;1.75;;;;;;;16.16;70.02;97928.28;5056291;28;20610;-59
2022/10/28 05:46:57;;;;;;;5.93;2.28;;;;;;;16.14;69.94;97919.53;5050638;28;20055;-59
2022/10/28 05:49:23;;;;;;;9.65;2.30;;;;;;;16.19;69.60;97916.81;5055196;28;20099;-59
2022/10/28 05:51:50;;;;;;;7.85;2.47;;;;;;;16.15;69.82;97910.25;5053354;28;20127;-59
2022/10/28 05:54:16;;;;;;;6.57;1.92;;;;;;;16.18;69.66;97917.06;5056196;28;20119;-59
2022/10/28 05:56:43;;;;;;;6.72;1.77;;;;;;;16.24;69.02;97913.22;5055792;28;20786;-59
2022/10/28 05:59:09;;;;;;;8.95;2.42;;;;;;;16.27;68.79;97912.69;5058313;28;20455;-58
2022/10/28 06:01:36;;;;;;;8.10;2.38;;;;;;;16.29;68.72;97909.69;5053537;28;20117;-59
2022/10/28 06:04:03;;;;;;;4.95;1.92;;;;;;;16.30;68.27;97901.22;5054414;28;20056;-59
2022/10/28 06:06:30;;;;;;;6.70;1.60;;;;;;;16.23;68.87;97901.50;5053389;28;20144;-59
2022/10/28 06:08:56;;;;;;;10.55;2.30;;;;;;;16.28;68.54;97902.59;5053249;28;20137;-59
2022/10/28 06:11:23;;;;;;;6.70;1.63;;;;;;;16.20;69.14;97902.03;5051919;28;20487;-59
2022/10/28 06:13:49;;;;;;;7.20;2.97;;;;;;;16.30;68.42;97906.69;5055839;28;20036;-59
2022/10/28 06:16:16;;;;;;;6.60;2.00;;;;;;;16.29;68.20;97910.47;5062041;28;20036;-58
2022/10/28 06:18:42;;;;;;;5.35;1.95;;;;;;;16.34;67.71;97901.47;5056519;28;20519;-59
2022/10/28 06:21:09;;;;;;;9.77;2.20;;;;;;;16.37;68.03;97900.91;5058916;28;20141;-58
2022/10/28 06:23:36;;;;;;;6.05;2.00;;;;;;;16.31;68.27;97904.75;5057931;28;20140;-59
2022/10/28 06:26:03;;;;;;;7.10;2.30;;;;;;;16.28;68.07;97900.66;5064701;28;20131;-58
2022/10/28 06:28:30;;;;;;;5.97;1.85;;;;;;;16.32;68.22;97907.22;5045027;28;20056;-59
2022/10/28 06:31:02;;;;;;;6.40;1.70;;;;;;;16.37;67.53;97912.66;5050587;28;20476;-58
2022/10/28 06:33:28;;;;;;;4.72;1.80;;;;;;;16.45;67.10;97908.56;5059881;28;20112;-58
2022/10/28 06:35:56;;;;;;;9.63;2.78;;;;;;;16.43;67.36;97909.94;5059335;28;20525;-59
2022/10/28 06:38:27;;;;;;;8.15;1.80;;;;;;;16.38;67.59;97913.47;5064452;28;20117;-59
2022/10/28 06:40:56;;;;;;;7.10;2.37;;;;;;;16.38;67.17;97910.75;5060702;28;20151;-59
2022/10/28 06:43:22;;;;;;;6.45;2.20;;;;;;;16.37;67.23;97911.84;5064693;28;20072;-59
2022/10/28 06:45:53;;;;;;;7.60;1.85;;;;;;;16.46;66.87;97912.09;5059926;28;20049;-59
2022/10/28 06:48:21;;;;;;;4.70;1.40;;;;;;;16.49;66.46;97915.09;5059277;28;20036;-59
2022/10/28 06:50:47;;;;;;;6.80;2.88;;;;;;;16.49;66.28;97917.84;5045196;28;20032;-58
2022/10/28 06:53:14;;;;;;;8.38;2.72;;;;;;;16.49;65.99;97923.31;5051597;28;20063;-59
2022/10/28 06:55:40;;;;;;;8.48;1.73;;;;;;;16.57;66.12;97935.56;5061983;28;20132;-59
2022/10/28 06:58:07;;;;;;;8.38;2.25;;;;;;;16.62;65.56;97941.03;5063273;28;20091;-59
2022/10/28 07:00:33;;;;;;;7.20;1.80;;;;;;;16.75;64.71;97944.28;5046029;28;20420;-58
2022/10/28 07:03:00;;;;;;;6.07;1.85;;;;;;;16.81;64.25;97945.06;5049777;28;20040;-59
2022/10/28 07:05:27;;;;;;;5.95;1.80;;;;;;;16.86;64.40;97956.81;5066345;28;20715;-59
2022/10/28 07:07:53;;;;;;;8.40;2.60;;;;;;;16.88;64.79;97954.59;5066068;28;20048;-58
2022/10/28 07:10:21;;;;;;;5.95;2.00;;;;;;;17.00;63.86;97957.03;5047584;28;20044;-59
2022/10/28 07:12:47;;;;;;;5.57;2.03;;;;;;;17.03;63.80;97959.19;5058559;28;20044;-59
2022/10/28 07:15:14;;;;;;;8.55;2.03;;;;;;;17.07;63.40;97947.75;5056728;28;20041;-58
2022/10/28 07:17:40;;;;;;;8.30;2.97;;;;;;;17.02;63.69;97954.00;5058454;28;20079;-59
2022/10/28 07:20:07;;;;;;;4.80;1.63;;;;;;;17.10;63.68;97956.19;5059549;28;20076;-58
2022/10/28 07:22:34;;;;;;;7.72;2.13;;;;;;;17.05;63.78;97953.47;5062649;28;20119;-58
2022/10/28 07:25:00;;;;;;;10.30;2.28;;;;;;;16.98;64.59;97963.88;5060970;28;20075;-58
2022/10/28 07:27:27;;;;;;;8.02;2.38;;;;;;;16.96;64.59;97957.88;5048995;28;20111;-59
2022/10/28 07:29:53;;;;;;;5.80;2.08;;;;;;;16.89;65.55;97963.66;5062529;28;20482;-59
2022/10/28 07:32:20;;;;;;;6.07;1.70;;;;;;;16.99;64.88;97969.06;5062006;28;20044;-59
2022/10/28 07:34:46;;;;;;;7.15;1.90;;;;;;;17.10;64.52;97963.59;5063763;28;20123;-58
2022/10/28 07:37:13;;;;;;;16.40;3.45;;;;;;;17.11;64.35;97973.44;5058286;28;20051;-59
2022/10/28 07:39:39;;;;;;;7.28;1.80;;;;;;;17.20;62.96;97973.66;5061496;28;20516;-59
2022/10/28 07:42:06;;;;;;;6.15;1.95;;;;;;;17.31;63.89;97971.72;5062087;28;20141;-59
2022/10/28 07:44:32;;;;;;;8.63;1.90;;;;;;;17.33;62.14;97975.81;5054255;28;20076;-57
2022/10/28 07:46:59;;;;;;;5.72;1.73;;;;;;;17.37;62.57;97970.56;5063225;28;20515;-58
2022/10/28 07:49:25;;;;;;;6.82;1.60;;;;;;;17.40;62.25;97970.03;5058109;28;20041;-59
2022/10/28 07:51:52;;;;;;;5.63;1.65;;;;;;;17.45;62.47;97977.38;5055064;28;20706;-60
2022/10/28 07:54:18;;;;;;;10.65;2.60;;;;;;;17.48;61.87;97976.81;5061924;28;20050;-60
2022/10/28 07:56:45;;;;;;;7.60;1.75;;;;;;;17.46;61.87;97974.34;5052570;28;20131;-59
2022/10/28 07:59:12;;;;;;;10.90;2.13;;;;;;;17.39;63.17;97977.41;5062895;28;20036;-58
2022/10/28 08:01:38;;;;;;;8.10;1.60;;;;;;;17.39;62.86;97971.09;5061676;28;20075;-58
2022/10/28 08:04:05;;;;;;;4.40;1.83;;;;;;;17.36;63.01;97971.69;5063158;28;20052;-58
2022/10/28 08:06:33;;;;;;;7.07;1.70;;;;;;;17.39;63.12;97982.03;5053808;28;20045;-58
2022/10/28 08:08:59;;;;;;;8.15;2.00;;;;;;;17.37;63.53;97976.06;5061734;28;20494;-56
2022/10/28 08:11:26;;;;;;;9.77;2.92;;;;;;;17.36;63.73;97974.41;5061388;28;20496;-57
2022/10/28 08:13:54;;;;;;;5.28;1.77;;;;;;;17.40;63.05;97970.03;5067159;28;20404;-58
2022/10/28 08:16:20;;;;;;;8.32;1.80;;;;;;;17.42;62.93;97973.28;5067818;28;20123;-57
2022/10/28 08:18:47;;;;;;;5.20;1.98;;;;;;;17.45;62.96;97966.41;5064816;28;20149;-58
2022/10/28 08:21:14;;;;;;;6.82;2.13;;;;;;;17.52;62.79;97972.41;5066700;28;20822;-58
2022/10/28 08:23:45;;;;;;;10.80;1.95;;;;;;;17.61;62.66;97981.66;5067903;28;20459;-58
2022/10/28 08:26:14;;;;;;;7.18;1.52;;;;;;;17.64;62.09;97988.47;5064957;28;20093;-58
2022/10/28 08:28:41;;;;;;;7.95;2.58;;;;;;;17.66;61.88;97969.88;5067312;28;20064;-59
2022/10/28 08:31:08;;;;;;;10.10;1.88;;;;;;;17.75;61.66;97972.81;5066437;28;20702;-58
2022/10/28 08:33:41;;;;;;;8.68;1.60;;;;;;;17.76;61.67;97985.41;5067326;28;20045;-58
2022/10/28 08:36:10;;;;;;;6.38;1.45;;;;;;;17.78;62.01;97980.47;5066872;28;20045;-57
2022/10/28 08:38:37;;;;;;;5.95;1.50;;;;;;;17.85;61.39;97989.19;5057861;28;20530;-58
2022/10/28 08:41:20;;;;;;;4.88;1.85;;;;;;;17.93;61.73;97983.09;5066703;28;20515;-58
2022/10/28 08:43:53;;;;;;;5.97;1.80;;;;;;;17.89;62.10;97981.19;5059592;28;20062;-58
2022/10/28 08:46:44;;;;;;;9.10;2.15;;;;;;;17.80;62.33;97978.28;5055753;28;20059;-58
2022/10/28 08:49:15;;;;;;;10.02;1.88;;;;;;;17.78;63.77;97983.19;5064628;28;20060;-58
2022/10/28 08:51:47;;;;;;;9.07;1.70;;;;;;;17.83;63.00;97985.09;5066745;28;20131;-58
2022/10/28 08:54:23;;;;;;;8.85;1.90;;;;;;;17.94;62.76;97986.63;5058565;28;20353;-58
2022/10/28 08:56:53;;;;;;;9.77;2.05;;;;;;;17.93;63.74;97995.97;5067071;28;20075;-58
2022/10/28 08:59:28;;;;;;;10.07;2.55;;;;;;;17.87;63.62;98005.34;5061200;28;20665;-58
2022/10/28 09:02:09;;;;;;;8.27;1.70;;;;;;;17.78;65.06;97989.50;5066360;28;20562;-58
2022/10/28 09:04:41;;;;;;;;;;;;;;;17.76;65.14;97980.72;5067349;28;20124;-58
2022/10/28 09:07:19;;;;;;;6.10;2.28;;;;;;;17.87;63.67;97959.56;5063718;28;20307;-58
2022/10/28 09:09:47;;;;;;;6.28;2.03;;;;;;;17.93;63.67;97958.44;5064606;28;20117;-59
2022/10/28 09:12:29;;;;;;;5.40;1.95;;;;;;;18.14;62.79;97962.97;5053268;28;20037;-57
2022/10/28 09:14:58;;;;;;;;;;;;;;;18.16;63.03;97986.22;5066956;28;20040;-59
2022/10/28 09:17:53;;;;;;;6.28;1.45;;;;;;;18.12;63.06;97974.19;5053404;28;20529;-59
2022/10/28 09:20:26;;;;;;;7.32;2.15;;;;;;;18.05;63.05;97969.03;5063490;28;20068;-59
2022/10/28 09:22:53;;;;;;;7.10;1.85;;;;;;;17.99;64.82;97972.88;5064618;28;20194;-59
2022/10/28 09:25:26;;;;;;;10.77;2.55;;;;;;;18.01;65.09;97969.88;5066062;28;20063;-59
2022/10/28 09:28:15;;;;;;;9.20;2.17;;;;;;;18.36;62.69;97983.59;5054120;28;20044;-59
2022/10/28 09:30:53;;;;;;;4.88;1.67;;;;;;;18.48;62.63;97986.78;5065688;28;20137;-58
2022/10/28 09:33:34;;;;;;;7.38;1.63;;;;;;;18.60;63.60;97986.38;5061594;28;20072;-59
2022/10/28 09:36:04;;;;;;;6.60;1.92;;;;;;;18.62;63.53;97975.13;5062549;28;20040;-59
2022/10/28 09:38:34;;;;;;;7.88;1.83;;;;;;;18.62;62.79;97969.63;5064328;28;20067;-59
2022/10/28 09:41:09;;;;;;;8.05;2.00;;;;;;;18.56;62.69;97975.19;5065759;28;20041;-59
2022/10/28 09:43:43;;;;;;;9.88;2.15;;;;;;;18.61;62.67;97978.97;5056488;28;20037;-59
2022/10/28 09:46:14;;;;;;;9.27;1.90;;;;;;;18.65;63.55;97982.78;5065916;28;20052;-59
2022/10/28 09:48:47;;;;;;;11.23;1.75;;;;;;;18.74;64.00;97974.72;5063904;28;20040;-59
2022/10/28 09:51:34;;;;;;;7.18;1.60;;;;;;;18.85;64.08;97974.31;5046442;28;20037;-59
2022/10/28 09:54:01;;;;;;;7.97;1.80;;;;;;;19.01;63.22;97976.06;5058296;28;20045;-59
2022/10/28 09:56:29;;;;;;;5.20;1.70;;;;;;;19.06;62.86;97979.56;5065994;28;20516;-59
2022/10/28 09:59:01;;;;;;;6.15;2.03;;;;;;;19.14;62.05;97982.78;5060616;28;20485;-58
2022/10/28 10:01:38;;;;;;;6.82;1.80;;;;;;;19.22;60.74;97985.72;5064658;28;20036;-59
2022/10/28 10:04:26;;;;;;;7.80;3.42;;;;;;;19.20;60.70;97981.63;5065697;28;20056;-60
2022/10/28 10:06:55;;;;;;;5.65;1.65;;;;;;;19.19;60.59;97977.22;5051549;28;20132;-60
2022/10/28 10:09:27;;;;;;;8.27;2.50;;;;;;;19.12;61.90;97974.06;5065201;28;20072;-60
2022/10/28 10:11:59;;;;;;;7.88;2.20;;;;;;;19.03;61.72;97969.19;5049905;28;20045;-59
2022/10/28 10:14:37;;;;;;;7.25;2.15;;;;;;;19.08;61.79;97943.63;5051790;28;20381;-60
2022/10/28 10:17:08;;;;;;;5.55;2.75;;;;;;;19.14;61.16;97952.59;5052550;28;20141;-60
2022/10/28 10:20:09;;;;;;;6.65;1.50;;;;;;;19.32;61.78;97968.28;5065037;28;20490;-59
2022/10/28 10:22:41;;;;;;;8.02;1.65;;;;;;;19.38;60.07;97970.97;5062880;28;20778;-60
2022/10/28 10:25:17;;;;;;;7.95;1.80;;;;;;;19.21;62.20;97961.31;5064919;28;20049;-59
2022/10/28 10:27:58;;;;;;;8.73;1.70;;;;;;;19.14;61.78;97966.31;5053046;28;20049;-59
2022/10/28 10:30:32;;;;;;;7.93;2.17;;;;;;;19.13;61.92;97971.00;5063094;28;20415;-59
2022/10/28 10:33:01;;;;;;;9.57;2.03;;;;;;;19.17;61.56;97969.28;5061250;28;20112;-59
2022/10/28 10:35:30;;;;;;;9.48;2.60;;;;;;;19.28;61.08;97966.44;5064644;28;20071;-60
2022/10/28 10:38:00;;;;;;;8.70;2.20;;;;;;;19.30;60.50;97973.25;5060142;28;20135;-59
2022/10/28 10:40:32;;;;;;;7.95;2.17;;;;;;;19.30;61.39;97975.16;5063179;28;20072;-66
2022/10/28 10:43:17;;;;;;;7.30;1.70;;;;;;;19.40;60.80;97987.94;5058574;28;20120;-58
2022/10/28 10:46:03;;;;;;;4.97;2.15;;;;;;;19.53;59.95;97992.72;5060865;28;20515;-60
2022/10/28 10:48:35;;;;;;;5.40;1.88;;;;;;;19.60;59.97;97998.66;5063168;28;20048;-60
2022/10/28 10:51:23;;;;;;;9.40;2.95;;;;;;;19.73;59.94;97988.06;5058229;28;20075;-59
2022/10/28 10:53:54;;;;;;;10.00;2.05;;;;;;;19.83;59.81;97985.13;5064743;28;20079;-59
2022/10/28 10:56:27;;;;;;;7.68;2.47;;;;;;;19.86;60.46;97973.56;5059767;28;20118;-59
2022/10/28 10:58:56;;;;;;;4.65;1.60;;;;;;;19.79;60.01;97969.56;5064798;28;20196;-60
2022/10/28 11:01:26;;;;;;;9.75;2.17;;;;;;;19.82;60.21;97963.44;5055646;28;20051;-60
2022/10/28 11:04:03;;;;;;;5.80;1.80;;;;;;;19.78;59.15;97963.25;5063461;28;20503;-60
2022/10/28 11:06:33;;;;;;;14.77;2.50;;;;;;;19.85;59.36;97974.69;5058386;28;20039;-60
2022/10/28 11:09:03;;;;;;;7.30;2.00;;;;;;;19.90;58.93;97968.28;5064667;28;20048;-60
2022/10/28 11:11:32;;;;;;;10.45;2.42;;;;;;;19.93;60.63;97961.38;5058707;28;20143;-58
2022/10/28 11:14:12;;;;;;;8.48;2.42;;;;;;;19.87;59.48;97966.13;5064621;28;20674;-60
2022/10/28 11:16:48;;;;;;;9.23;2.20;;;;;;;19.80;59.87;97973.94;5060111;28;20064;-60
2022/10/28 11:19:28;;;;;;;6.60;1.90;;;;;;;19.80;59.76;97966.53;5055936;28;20764;-59
2022/10/28 11:22:00;;;;;;;6.80;2.17;;;;;;;19.63;60.64;97948.63;5046376;28;20074;-60
2022/10/28 11:24:37;;;;;;;10.35;2.88;;;;;;;19.59;61.12;97950.34;5059020;28;20084;-60
2022/10/28 11:27:19;;;;;;;11.75;2.25;;;;;;;19.70;61.35;97941.94;5062024;28;20152;-60
2022/10/28 11:29:47;;;;;;;8.25;2.70;;;;;;;19.74;61.54;97940.22;5062061;28;20117;-58
2022/10/28 11:32:19;;;;;;;8.07;2.13;;;;;;;19.69;62.21;97935.63;5063755;28;20044;-60
2022/10/28 11:35:23;;;;;;;7.93;2.65;;;;;;;19.70;63.41;97947.44;5053352;28;20071;-58
2022/10/28 11:38:25;;;;;;;5.78;1.65;;;;;;;19.85;62.50;97947.19;5060494;28;21652;-59
2022/10/28 11:41:12;;;;;;;8.27;2.70;;;;;;;19.96;61.08;97953.34;5061719;28;20135;-59
2022/10/28 11:43:56;;;;;;;10.95;2.42;;;;;;;19.98;60.68;97937.38;5059076;28;20124;-59
2022/10/28 11:46:49;;;;;;;9.70;1.80;;;;;;;20.13;60.72;97936.31;5049964;28;20097;-59
2022/10/28 11:49:45;;;;;;;7.65;2.28;;;;;;;20.27;61.27;97941.06;5059696;28;20916;-59